Time;durP1;ratioP1;P1;durP2;ratioP2;P2;SDS_P1;SDS_P2;PMS_P1;PMS_P2;Temp;Humidity;BMP_temperature;BMP_pressure;BME280_temperature;BME280_humidity;BME280_pressure;Samples;Min_cycle;Max_cycle;Signal;HPM_P1;HPM_P2
2021/01/30 00:00:32;;;;;;;19.90;10.13;;;-2.90;75.30;;;;;;4939834;29;20035;-93
2021/01/30 00:02:58;;;;;;;20.52;9.52;;;-2.90;75.30;;;;;;4940981;29;20039;-95
2021/01/30 00:05:26;;;;;;;20.88;10.07;;;-3.00;75.10;;;;;;4940608;29;20462;-92
2021/01/30 00:07:52;;;;;;;19.13;9.82;;;-3.00;75.30;;;;;;4940059;29;20103;-93
2021/01/30 00:10:19;;;;;;;19.67;9.25;;;-3.00;75.30;;;;;;4939169;29;20059;-93
2021/01/30 00:12:45;;;;;;;24.45;10.73;;;-3.10;75.20;;;;;;4940636;29;20426;-94
2021/01/30 00:15:13;;;;;;;20.35;10.10;;;-3.00;75.40;;;;;;4941705;29;20035;-93
2021/01/30 00:17:39;;;;;;;22.23;10.60;;;-3.10;75.20;;;;;;4943193;29;20043;-92
2021/01/30 00:20:07;;;;;;;21.58;10.82;;;-3.00;75.10;;;;;;4940395;29;20032;-95
2021/01/30 00:22:33;;;;;;;19.92;10.23;;;-3.10;74.90;;;;;;4940206;29;20463;-93
2021/01/30 00:24:58;;;;;;;23.70;11.00;;;-3.10;74.90;;;;;;4940649;29;20039;-92
2021/01/30 00:27:25;;;;;;;26.20;10.70;;;-3.10;75.00;;;;;;4939941;29;20475;-91
2021/01/30 00:29:51;;;;;;;21.55;10.18;;;-3.20;75.10;;;;;;4941185;29;20028;-92
2021/01/30 00:32:19;;;;;;;22.65;10.30;;;-3.10;75.20;;;;;;4940431;29;20107;-91
2021/01/30 00:34:45;;;;;;;23.60;11.57;;;-3.10;75.20;;;;;;4940187;29;20189;-92
2021/01/30 00:37:22;;;;;;;27.40;13.35;;;-3.20;75.10;;;;;;4940197;29;20042;-91
2021/01/30 00:39:49;;;;;;;32.95;15.05;;;-3.20;75.10;;;;;;4940486;29;20030;-92
2021/01/30 00:42:16;;;;;;;23.52;12.30;;;-3.10;75.10;;;;;;4939944;29;20102;-93
2021/01/30 00:44:43;;;;;;;24.67;11.60;;;-3.20;74.90;;;;;;4939952;29;20035;-93
2021/01/30 00:47:09;;;;;;;25.50;11.90;;;-3.20;75.00;;;;;;4940224;29;20032;-91
2021/01/30 00:49:35;;;;;;;30.42;14.52;;;-3.20;74.90;;;;;;4939503;29;20059;-93
2021/01/30 00:52:02;;;;;;;28.52;13.23;;;-3.20;75.00;;;;;;4939701;29;20055;-92
2021/01/30 00:54:27;;;;;;;34.92;14.20;;;-3.20;75.00;;;;;;4939552;29;20115;-92
2021/01/30 00:56:55;;;;;;;26.55;13.55;;;-3.20;74.80;;;;;;4939703;29;20067;-92
2021/01/30 00:59:22;;;;;;;31.98;14.13;;;-3.20;74.60;;;;;;4939693;29;20123;-93
2021/01/30 01:01:50;;;;;;;30.45;14.38;;;-3.30;74.50;;;;;;4938903;29;20032;-91
2021/01/30 01:04:17;;;;;;;36.35;16.05;;;-3.30;74.40;;;;;;4940620;29;20028;-93
2021/01/30 01:06:43;;;;;;;28.05;12.30;;;-3.30;74.50;;;;;;4940849;29;20038;-93
2021/01/30 01:09:09;;;;;;;32.67;13.98;;;-3.40;74.50;;;;;;4938479;29;20028;-91
2021/01/30 01:11:36;;;;;;;26.42;11.73;;;-3.30;74.60;;;;;;4939487;29;20055;-93
2021/01/30 01:14:03;;;;;;;27.25;12.52;;;-3.40;74.50;;;;;;4939615;29;20031;-92
2021/01/30 01:16:28;;;;;;;33.33;14.30;;;-3.40;74.50;;;;;;4938699;29;20474;-92
2021/01/30 01:18:54;;;;;;;20.17;10.10;;;-3.50;74.40;;;;;;4939241;29;20063;-92
2021/01/30 01:21:20;;;;;;;28.13;11.85;;;-3.50;74.80;;;;;;4942041;29;20410;-94
2021/01/30 01:23:46;;;;;;;25.33;12.57;;;-3.50;74.80;;;;;;4926668;29;20103;-90
2021/01/30 01:26:15;;;;;;;30.73;13.70;;;-3.50;74.70;;;;;;4928821;29;20025;-91
2021/01/30 01:28:41;;;;;;;33.30;15.48;;;-3.50;74.60;;;;;;4928897;29;20099;-91
2021/01/30 01:31:07;;;;;;;45.67;18.02;;;-3.50;74.70;;;;;;4921926;29;20095;-91
2021/01/30 01:33:33;;;;;;;37.92;16.40;;;-3.50;74.40;;;;;;4919465;29;20107;-93
2021/01/30 01:35:59;;;;;;;42.45;17.75;;;-3.60;74.50;;;;;;4919575;29;20442;-91
2021/01/30 01:38:26;;;;;;;41.63;19.30;;;-3.60;74.70;;;;;;4919629;29;20111;-92
2021/01/30 01:40:52;;;;;;;42.95;19.65;;;-3.60;74.50;;;;;;4920184;29;20048;-91
2021/01/30 01:43:24;;;;;;;38.85;17.85;;;-3.60;74.40;;;;;;4919461;29;20494;-92
2021/01/30 01:46:10;;;;;;;43.70;19.55;;;-3.70;74.30;;;;;;4919419;29;20040;-92
2021/01/30 01:48:40;;;;;;;49.58;20.33;;;-3.70;74.50;;;;;;4913481;29;20040;-91
2021/01/30 01:51:10;;;;;;;53.72;22.00;;;-3.70;74.90;;;;;;4919690;29;20048;-92
2021/01/30 01:53:40;;;;;;;47.42;21.23;;;-3.70;74.90;;;;;;4919519;29;20027;-90
2021/01/30 01:56:20;;;;;;;54.40;22.08;;;-3.70;74.80;;;;;;4919305;29;20032;-91
2021/01/30 01:58:50;;;;;;;55.42;23.13;;;-3.70;75.00;;;;;;4920756;29;20390;-92
2021/01/30 02:01:17;;;;;;;57.17;23.58;;;-3.70;75.00;;;;;;4927438;29;20039;-89
2021/01/30 02:03:53;;;;;;;53.58;23.65;;;-3.70;74.80;;;;;;4933527;29;20028;-90
2021/01/30 02:06:19;;;;;;;63.58;26.00;;;-3.80;74.60;;;;;;4934888;29;20091;-89
2021/01/30 02:08:46;;;;;;;67.35;26.65;;;-3.80;74.80;;;;;;4934524;29;20039;-90
2021/01/30 02:11:11;;;;;;;62.47;26.10;;;-3.80;74.90;;;;;;4930076;29;20067;-90
2021/01/30 02:13:44;;;;;;;62.65;27.25;;;-3.80;74.80;;;;;;4930342;29;20032;-91
2021/01/30 02:16:15;;;;;;;67.18;28.65;;;-3.80;75.00;;;;;;4931199;29;20036;-93
2021/01/30 02:19:19;;;;;;;66.07;28.13;;;-3.80;75.10;;;;;;4929486;29;20046;-92
2021/01/30 02:21:59;;;;;;;61.55;26.52;;;-3.80;75.00;;;;;;4905428;29;20050;-92
2021/01/30 02:24:28;;;;;;;65.22;26.23;;;-3.70;75.00;;;;;;4918016;29;20032;-93
2021/01/30 02:27:25;;;;;;;59.55;25.27;;;-3.70;74.90;;;;;;4919084;29;20040;-92
2021/01/30 02:30:10;;;;;;;57.70;24.30;;;-3.70;74.80;;;;;;4918682;29;20494;-90
2021/01/30 02:32:53;;;;;;;55.80;24.48;;;-3.80;74.40;;;;;;4918932;29;20039;-92
2021/01/30 02:35:52;;;;;;;70.40;28.20;;;-3.80;74.50;;;;;;4918450;29;20475;-91
2021/01/30 02:38:25;;;;;;;73.07;27.17;;;-3.80;74.80;;;;;;4918099;29;20400;-87
2021/01/30 02:40:56;;;;;;;66.07;29.80;;;-3.90;74.60;;;;;;4917655;29;20497;-91
2021/01/30 02:43:31;;;;;;;65.78;28.08;;;-3.80;74.80;;;;;;4918801;29;20028;-91
2021/01/30 02:46:01;;;;;;;56.03;25.77;;;-3.90;74.30;;;;;;4918430;29;20043;-91
2021/01/30 02:48:44;;;;;;;57.55;25.40;;;-3.90;74.60;;;;;;4918046;29;20068;-89
2021/01/30 02:54:37;;;;;;;61.03;26.65;;;-3.80;74.90;;;;;;4934357;29;20123;-91
2021/01/30 02:57:07;;;;;;;59.33;25.25;;;-3.80;74.40;;;;;;4936854;29;20568;-90
2021/01/30 02:59:35;;;;;;;81.45;34.15;;;-3.90;74.70;;;;;;4937963;29;20024;-93
2021/01/30 03:02:01;;;;;;;59.03;24.75;;;-3.90;75.10;;;;;;4936942;29;20032;-93
2021/01/30 03:04:28;;;;;;;57.47;27.02;;;-3.80;74.90;;;;;;4936780;29;20028;-91
2021/01/30 03:07:00;;;;;;;61.65;27.20;;;-3.80;74.80;;;;;;4939675;29;20465;-91
2021/01/30 03:09:45;;;;;;;56.10;25.15;;;-3.80;74.70;;;;;;4945116;29;20032;-92
2021/01/30 03:12:31;;;;;;;58.65;25.00;;;-3.80;74.50;;;;;;4943856;29;20039;-94
2021/01/30 03:15:09;;;;;;;56.08;24.38;;;-3.80;74.60;;;;;;4938228;29;20035;-92
2021/01/30 03:17:35;;;;;;;57.08;25.02;;;-3.80;74.40;;;;;;4945494;29;20027;-93
2021/01/30 03:20:02;;;;;;;54.30;24.15;;;-3.80;74.40;;;;;;4956409;29;20110;-91
2021/01/30 03:22:31;;;;;;;59.95;24.02;;;-3.80;74.40;;;;;;4959560;28;20020;-89
2021/01/30 03:24:58;;;;;;;53.15;23.50;;;-3.80;74.70;;;;;;4959925;29;20050;-92
2021/01/30 03:27:29;;;;;;;55.05;23.13;;;-3.80;74.50;;;;;;4959882;28;20063;-88
2021/01/30 03:29:56;;;;;;;53.28;24.17;;;-3.80;74.10;;;;;;4959922;28;20096;-92
2021/01/30 03:32:24;;;;;;;59.42;25.45;;;-3.80;74.60;;;;;;4953880;29;20088;-88
2021/01/30 03:34:52;;;;;;;54.53;24.23;;;-3.80;74.60;;;;;;4948197;29;20171;-91
2021/01/30 03:37:19;;;;;;;57.08;24.77;;;-3.70;74.90;;;;;;4952176;29;20042;-89
2021/01/30 03:39:44;;;;;;;52.55;22.23;;;-3.70;74.70;;;;;;4955275;29;20454;-92
2021/01/30 03:42:11;;;;;;;55.60;22.58;;;-3.70;74.40;;;;;;4955055;29;20039;-91
2021/01/30 03:44:38;;;;;;;52.17;23.98;;;-3.70;74.30;;;;;;4941133;29;20020;-93
2021/01/30 03:47:04;;;;;;;51.70;23.85;;;-3.70;74.30;;;;;;4937564;29;20028;-93
2021/01/30 03:49:29;;;;;;;55.45;24.40;;;-3.70;74.00;;;;;;4936759;29;20047;-93
2021/01/30 03:51:55;;;;;;;60.83;27.27;;;-3.70;74.40;;;;;;4936974;29;20024;-92
2021/01/30 03:54:21;;;;;;;51.85;24.33;;;-3.70;74.20;;;;;;4936722;29;20390;-92
2021/01/30 03:56:47;;;;;;;55.03;24.45;;;-3.70;73.90;;;;;;4929271;29;20382;-92
2021/01/30 03:59:18;;;;;;;48.47;22.73;;;-3.70;74.10;;;;;;4917497;29;20538;-92
2021/01/30 04:01:44;;;;;;;58.42;23.58;;;-3.70;74.40;;;;;;4930246;29;20079;-92
2021/01/30 04:04:10;;;;;;;52.97;23.30;;;-3.70;74.60;;;;;;4936629;29;20530;-91
2021/01/30 04:06:36;;;;;;;46.28;21.25;;;-3.70;74.70;;;;;;4936122;29;20087;-90
2021/01/30 04:09:04;;;;;;;53.38;21.98;;;-3.60;74.30;;;;;;4936328;29;20031;-92
2021/01/30 04:11:31;;;;;;;55.78;24.13;;;-3.70;74.10;;;;;;4936387;29;20028;-92
2021/01/30 04:13:58;;;;;;;71.20;31.48;;;-3.70;74.00;;;;;;4935905;29;20027;-91
2021/01/30 04:16:24;;;;;;;58.25;24.48;;;-3.70;74.00;;;;;;4936120;29;20046;-91
2021/01/30 04:18:51;;;;;;;56.33;24.23;;;-3.80;74.20;;;;;;4936777;29;20039;-90
2021/01/30 04:21:17;;;;;;;70.32;27.50;;;-3.70;74.30;;;;;;4932446;29;20055;-90
2021/01/30 04:23:47;;;;;;;71.13;29.48;;;-3.80;74.30;;;;;;4930731;29;20148;-89
2021/01/30 04:26:14;;;;;;;72.15;29.83;;;-3.80;74.40;;;;;;4929150;29;20028;-89
2021/01/30 04:28:40;;;;;;;63.95;26.02;;;-3.70;74.20;;;;;;4928832;29;20369;-90
2021/01/30 04:31:07;;;;;;;58.67;24.23;;;-3.80;73.90;;;;;;4931122;29;20038;-90
2021/01/30 04:33:33;;;;;;;71.55;29.33;;;-3.80;74.00;;;;;;4930497;29;20020;-90
2021/01/30 04:35:58;;;;;;;67.28;25.52;;;-3.80;74.30;;;;;;4930252;29;20083;-90
2021/01/30 04:38:24;;;;;;;58.67;25.40;;;-3.80;74.40;;;;;;4930605;29;20434;-90
2021/01/30 04:41:04;;;;;;;56.13;27.67;;;-3.80;74.30;;;;;;4930777;29;20082;-93
2021/01/30 04:43:36;;;;;;;51.58;23.70;;;-3.80;74.50;;;;;;4928329;29;20020;-90
2021/01/30 04:46:21;;;;;;;53.58;25.27;;;-3.70;74.80;;;;;;4928429;29;20131;-91
2021/01/30 04:48:55;;;;;;;44.00;20.80;;;-3.70;74.60;;;;;;4929927;29;20026;-91
2021/01/30 04:51:28;;;;;;;55.42;25.83;;;-3.70;74.80;;;;;;4929907;29;20036;-90
2021/01/30 04:54:32;;;;;;;64.13;27.00;;;-3.60;75.10;;;;;;4928588;29;20493;-91
2021/01/30 04:57:04;;;;;;;66.63;27.20;;;-3.50;74.70;;;;;;4873124;29;20152;-91
2021/01/30 04:59:46;;;;;;;65.60;25.92;;;-3.50;74.50;;;;;;4887318;29;20031;-90
2021/01/30 05:02:24;;;;;;;55.03;24.10;;;-3.50;74.00;;;;;;4916174;29;20046;-89
2021/01/30 05:04:53;;;;;;;54.33;23.02;;;-3.50;73.80;;;;;;4928477;29;20415;-90
2021/01/30 05:07:34;;;;;;;53.28;24.50;;;-3.50;74.40;;;;;;4935271;29;20032;-89
2021/01/30 05:10:17;;;;;;;57.33;25.88;;;-3.40;74.80;;;;;;4929178;29;20317;-91
2021/01/30 05:13:10;;;;;;;65.93;40.08;;;-3.30;75.30;;;;;;4929346;29;20107;-91
2021/01/30 05:15:44;;;;;;;50.58;23.58;;;-3.20;75.30;;;;;;4943598;29;20032;-91
2021/01/30 05:18:15;;;;;;;64.88;30.52;;;-3.10;74.80;;;;;;4927744;29;20028;-90
2021/01/30 05:20:53;;;;;;;53.72;26.10;;;-3.10;74.70;;;;;;4931226;29;20095;-89
2021/01/30 05:23:20;;;;;;;78.40;31.38;;;-3.00;74.60;;;;;;4930033;29;20031;-90
2021/01/30 05:25:51;;;;;;;76.93;31.80;;;-3.00;74.20;;;;;;4929331;29;20031;-94
2021/01/30 05:28:36;;;;;;;76.28;31.10;;;-3.00;74.10;;;;;;4926359;29;20031;-90
2021/01/30 05:31:34;;;;;;;67.20;29.50;;;-3.00;73.70;;;;;;4928757;29;20461;-89
2021/01/30 05:34:09;;;;;;;73.95;29.98;;;-3.00;73.90;;;;;;4928953;29;20557;-91
2021/01/30 05:36:49;;;;;;;68.43;29.77;;;-3.00;74.00;;;;;;4927647;29;20386;-92
2021/01/30 05:39:43;;;;;;;67.20;29.33;;;-2.90;73.90;;;;;;4929285;29;20467;-92
2021/01/30 05:42:31;;;;;;;71.18;29.52;;;-2.90;74.00;;;;;;4928697;29;20024;-92
2021/01/30 05:45:10;;;;;;;68.85;30.88;;;-2.90;73.80;;;;;;4927744;29;20079;-93
2021/01/30 05:47:37;;;;;;;72.13;30.85;;;-2.90;73.30;;;;;;4927428;29;20020;-89
2021/01/30 05:50:02;;;;;;;67.95;30.73;;;-2.80;73.90;;;;;;4938230;29;20110;-92
2021/01/30 05:52:32;;;;;;;64.05;27.52;;;-2.80;74.70;;;;;;4936702;29;20470;-90
2021/01/30 05:54:58;;;;;;;60.63;27.67;;;-2.60;75.00;;;;;;4928327;29;20090;-92
2021/01/30 05:57:24;;;;;;;57.75;26.95;;;-2.50;74.50;;;;;;4926645;29;20028;-92
2021/01/30 06:00:00;;;;;;;63.70;30.17;;;-2.40;74.40;;;;;;4926961;29;20019;-92
2021/01/30 06:02:31;;;;;;;65.63;29.65;;;-2.30;74.20;;;;;;4928831;29;20051;-90
2021/01/30 06:04:57;;;;;;;61.17;28.20;;;-2.20;73.90;;;;;;4929041;29;20462;-91
2021/01/30 06:07:23;;;;;;;58.72;28.38;;;-2.20;74.10;;;;;;4927596;29;20431;-92
2021/01/30 06:09:49;;;;;;;66.03;29.58;;;-2.00;74.40;;;;;;4938047;29;20027;-92
2021/01/30 06:12:30;;;;;;;55.47;26.17;;;-1.90;74.50;;;;;;4938410;29;20028;-92
2021/01/30 06:15:09;;;;;;;64.43;28.10;;;-1.80;74.30;;;;;;4952911;29;20028;-90
2021/01/30 06:17:35;;;;;;;77.75;37.42;;;-1.60;74.50;;;;;;4938770;29;20063;-90
2021/01/30 06:20:09;;;;;;;74.50;35.38;;;-1.50;74.40;;;;;;4951524;29;20023;-95
2021/01/30 06:22:35;;;;;;;70.63;39.08;;;-1.30;74.60;;;;;;4973535;29;20035;-95
2021/01/30 06:25:29;;;;;;;60.13;30.60;;;-1.10;74.40;;;;;;4969792;29;20389;-94
2021/01/30 06:28:01;;;;;;;52.42;25.95;;;-1.00;73.70;;;;;;4954800;29;20028;-95
2021/01/30 06:30:34;;;;;;;54.60;27.55;;;-0.90;73.30;;;;;;4954630;29;20019;-91
2021/01/30 06:33:04;;;;;;;69.50;33.92;;;-0.80;73.00;;;;;;4949722;29;20038;-94
2021/01/30 06:35:39;;;;;;;60.03;30.15;;;-0.70;72.80;;;;;;4954234;29;20024;-92
2021/01/30 06:38:17;;;;;;;44.03;21.25;;;-0.70;72.80;;;;;;4955080;29;20024;-95
2021/01/30 06:40:58;;;;;;;55.03;28.30;;;-0.50;72.70;;;;;;4947995;29;20028;-95
2021/01/30 06:43:33;;;;;;;54.83;25.55;;;-0.50;72.00;;;;;;4939485;29;20059;-95
2021/01/30 06:46:09;;;;;;;60.80;29.25;;;-0.40;71.70;;;;;;4940196;29;20469;-95
2021/01/30 06:48:56;;;;;;;59.17;28.73;;;-0.40;71.70;;;;;;4945994;29;20036;-94
2021/01/30 06:51:31;;;;;;;51.95;24.35;;;-0.40;72.20;;;;;;4931226;29;20024;-95
2021/01/30 06:54:17;;;;;;;44.88;23.35;;;-0.20;72.50;;;;;;4930246;29;20032;-96
2021/01/30 06:56:44;;;;;;;43.85;20.65;;;0.00;72.60;;;;;;4932387;29;20072;-94
2021/01/30 06:59:25;;;;;;;41.67;20.38;;;0.10;72.40;;;;;;4937196;29;20083;-94
2021/01/30 07:01:52;;;;;;;41.95;21.63;;;0.30;72.30;;;;;;4923276;29;20032;-80
2021/01/30 07:04:55;;;;;;;46.75;23.05;;;0.40;72.10;;;;;;4921412;29;20058;-79
2021/01/30 07:07:37;;;;;;;44.88;21.20;;;0.60;71.90;;;;;;4925900;29;20405;-78
2021/01/30 07:10:21;;;;;;;46.53;20.73;;;0.70;71.70;;;;;;4924212;29;20051;-78
2021/01/30 07:13:12;;;;;;;44.67;22.40;;;0.80;70.90;;;;;;4924922;29;20034;-79
2021/01/30 07:15:46;;;;;;;46.42;22.48;;;0.90;70.60;;;;;;4925927;29;20819;-78
2021/01/30 07:18:35;;;;;;;52.08;23.75;;;0.90;70.40;;;;;;4925588;29;20512;-78
2021/01/30 07:21:14;;;;;;;38.38;19.48;;;0.90;70.50;;;;;;4923827;29;20032;-78
2021/01/30 07:24:17;;;;;;;41.45;19.45;;;1.10;70.70;;;;;;4922542;29;20035;-79
2021/01/30 07:27:03;;;;;;;36.65;16.27;;;1.20;70.60;;;;;;4923743;29;20032;-78
2021/01/30 07:30:01;;;;;;;42.78;20.55;;;1.30;70.00;;;;;;4918776;29;20035;-78
2021/01/30 07:32:37;;;;;;;42.53;20.25;;;1.50;70.40;;;;;;4916815;29;20028;-77
2021/01/30 07:35:48;;;;;;;37.75;18.65;;;1.70;70.80;;;;;;4923741;29;20036;-77
2021/01/30 07:38:24;;;;;;;34.30;16.40;;;1.90;70.50;;;;;;4884986;29;20025;-78
2021/01/30 07:41:00;;;;;;;37.63;17.60;;;2.10;69.50;;;;;;4887233;29;20071;-78
2021/01/30 07:43:53;;;;;;;34.88;16.67;;;2.20;69.50;;;;;;4911299;29;20519;-78
2021/01/30 07:46:33;;;;;;;31.17;16.35;;;2.30;69.20;;;;;;4926623;29;20028;-78
2021/01/30 07:49:06;;;;;;;32.35;17.02;;;2.40;68.50;;;;;;4925055;29;20025;-77
2021/01/30 07:52:07;;;;;;;32.92;17.48;;;2.50;68.50;;;;;;4924745;29;20028;-78
2021/01/30 07:54:34;;;;;;;37.03;19.52;;;2.50;67.80;;;;;;4929855;29;20047;-79
2021/01/30 07:57:32;;;;;;;32.58;15.75;;;2.60;68.10;;;;;;4929334;29;20450;-77
2021/01/30 08:00:06;;;;;;;33.15;15.60;;;2.70;67.10;;;;;;4931654;29;20463;-77
2021/01/30 08:03:09;;;;;;;26.75;14.02;;;2.70;67.40;;;;;;4928038;29;20028;-78
2021/01/30 08:05:39;;;;;;;32.85;16.58;;;2.70;66.90;;;;;;4931573;29;20482;-78
2021/01/30 08:08:24;;;;;;;34.28;17.45;;;2.80;67.20;;;;;;4929227;29;20032;-78
2021/01/30 08:11:19;;;;;;;31.77;15.98;;;2.80;66.90;;;;;;4929732;29;20354;-78
2021/01/30 08:13:53;;;;;;;33.97;17.48;;;3.00;67.10;;;;;;4916495;29;20036;-78
2021/01/30 08:16:38;;;;;;;35.08;16.30;;;3.00;65.90;;;;;;4936769;29;20050;-78
2021/01/30 08:19:09;;;;;;;42.50;18.85;;;3.00;65.60;;;;;;4936405;29;20560;-77
2021/01/30 08:21:59;;;;;;;39.50;18.00;;;2.90;65.80;;;;;;4929927;29;20032;-79
2021/01/30 08:24:37;;;;;;;38.13;18.80;;;2.90;65.50;;;;;;4927464;29;20015;-79
2021/01/30 08:27:13;;;;;;;40.92;18.95;;;2.90;65.40;;;;;;4927269;29;20130;-79
2021/01/30 08:29:43;;;;;;;39.63;19.95;;;2.90;65.40;;;;;;4927830;29;20081;-78
2021/01/30 08:32:24;;;;;;;40.55;19.90;;;2.90;65.40;;;;;;4930552;29;20088;-78
2021/01/30 08:35:17;;;;;;;38.00;20.25;;;3.00;65.80;;;;;;4929497;29;20024;-78
2021/01/30 08:37:55;;;;;;;39.60;19.70;;;3.10;66.00;;;;;;4927738;29;20046;-78
2021/01/30 08:40:52;;;;;;;42.58;21.20;;;3.20;65.80;;;;;;4927972;29;20103;-78
2021/01/30 08:43:33;;;;;;;44.45;22.83;;;3.40;65.50;;;;;;4929424;29;20051;-79
2021/01/30 08:46:26;;;;;;;45.33;20.95;;;3.50;65.60;;;;;;4926807;29;20393;-78
2021/01/30 08:49:13;;;;;;;44.65;21.58;;;3.60;64.80;;;;;;4919547;29;20039;-78
2021/01/30 08:51:40;;;;;;;44.85;21.92;;;3.60;64.40;;;;;;4919192;29;20237;-78
2021/01/30 08:54:31;;;;;;;45.80;23.10;;;3.50;64.00;;;;;;4929084;29;20091;-77
2021/01/30 08:56:57;;;;;;;44.70;21.48;;;3.30;63.90;;;;;;4927488;29;20093;-79
2021/01/30 08:59:51;;;;;;;45.63;21.83;;;3.20;64.00;;;;;;4941431;29;20028;-78
2021/01/30 09:02:29;;;;;;;41.93;20.73;;;3.00;63.80;;;;;;4928787;29;20446;-78
2021/01/30 09:05:07;;;;;;;44.35;21.23;;;2.80;63.70;;;;;;4928319;29;20027;-79
2021/01/30 09:07:53;;;;;;;43.30;21.33;;;2.70;65.10;;;;;;4928028;29;20478;-82
2021/01/30 09:10:22;;;;;;;42.83;19.33;;;2.60;64.90;;;;;;4926739;29;20378;-78
2021/01/30 09:12:58;;;;;;;35.00;17.42;;;2.50;65.00;;;;;;4926882;29;20020;-79
2021/01/30 09:15:42;;;;;;;36.03;17.73;;;2.50;65.40;;;;;;4926744;29;20095;-78
2021/01/30 09:18:31;;;;;;;35.03;17.77;;;2.40;65.60;;;;;;4927032;29;20020;-78
2021/01/30 09:21:17;;;;;;;38.85;17.98;;;2.30;65.50;;;;;;4926461;29;20024;-78
2021/01/30 09:24:06;;;;;;;36.15;18.80;;;2.10;65.70;;;;;;4925996;29;20027;-78
2021/01/30 09:26:50;;;;;;;37.00;19.05;;;2.00;66.20;;;;;;4919578;29;20162;-77
2021/01/30 09:29:40;;;;;;;38.97;18.80;;;1.90;66.50;;;;;;4928585;29;20030;-77
2021/01/30 09:32:08;;;;;;;41.17;18.83;;;1.90;67.20;;;;;;4927696;29;20019;-78
2021/01/30 09:34:46;;;;;;;36.70;18.23;;;2.00;67.80;;;;;;4926300;29;20028;-79
2021/01/30 09:37:32;;;;;;;37.28;18.42;;;2.10;67.70;;;;;;4926237;29;20087;-77
2021/01/30 09:39:59;;;;;;;35.90;17.77;;;2.10;67.70;;;;;;4925655;29;20036;-78
2021/01/30 09:42:26;;;;;;;33.17;16.67;;;2.20;67.70;;;;;;4926731;29;20500;-78
2021/01/30 09:45:25;;;;;;;33.83;17.60;;;2.20;67.80;;;;;;4926179;29;20378;-78
2021/01/30 09:47:52;;;;;;;31.50;16.52;;;2.30;68.20;;;;;;4895223;29;20103;-77
2021/01/30 09:50:23;;;;;;;34.10;18.33;;;2.30;67.90;;;;;;4926422;29;20035;-78
2021/01/30 09:53:47;;;;;;;40.13;19.33;;;2.30;68.20;;;;;;4932957;29;20024;-78
2021/01/30 09:56:16;;;;;;;40.38;19.40;;;2.40;68.10;;;;;;4913991;29;20063;-78
2021/01/30 09:58:45;;;;;;;36.88;19.02;;;2.40;68.40;;;;;;4926332;29;20032;-78
2021/01/30 10:01:31;;;;;;;36.58;18.95;;;2.40;68.30;;;;;;4924945;29;20036;-78
2021/01/30 10:03:57;;;;;;;39.92;20.15;;;2.40;68.60;;;;;;4927283;29;20526;-78
2021/01/30 10:06:32;;;;;;;37.58;20.17;;;2.30;68.40;;;;;;4926713;29;20107;-78
2021/01/30 10:09:08;;;;;;;38.63;20.63;;;2.40;69.30;;;;;;4925310;29;20020;-78
2021/01/30 10:11:36;;;;;;;40.92;19.90;;;2.50;69.50;;;;;;4924912;29;20423;-80
2021/01/30 10:14:02;;;;;;;37.50;19.25;;;2.60;69.90;;;;;;4926768;29;20039;-79
2021/01/30 10:16:28;;;;;;;41.40;21.52;;;2.80;70.00;;;;;;4919217;29;20124;-79
2021/01/30 10:19:08;;;;;;;48.30;25.80;;;2.90;70.20;;;;;;4917763;29;20027;-78
2021/01/30 10:21:37;;;;;;;51.40;27.02;;;3.10;70.10;;;;;;4917982;29;20423;-78
2021/01/30 10:24:28;;;;;;;54.40;29.10;;;3.30;70.00;;;;;;4918111;29;20041;-78
2021/01/30 10:27:15;;;;;;;52.65;28.38;;;3.60;69.90;;;;;;4917746;29;20084;-78
2021/01/30 10:29:41;;;;;;;48.70;27.00;;;3.80;69.80;;;;;;4917864;29;20043;-80
2021/01/30 10:32:15;;;;;;;47.05;25.63;;;4.00;69.70;;;;;;4918264;29;20115;-79
2021/01/30 10:34:44;;;;;;;45.42;24.02;;;4.10;69.40;;;;;;4917453;29;20032;-79
2021/01/30 10:37:33;;;;;;;43.80;22.67;;;4.30;69.00;;;;;;4917874;29;20134;-78
2021/01/30 10:40:06;;;;;;;40.65;21.20;;;4.40;68.60;;;;;;4916352;29;20111;-79
2021/01/30 10:42:35;;;;;;;39.97;22.08;;;4.50;68.30;;;;;;4915947;29;20028;-78
2021/01/30 10:45:12;;;;;;;40.53;22.40;;;4.60;68.00;;;;;;4918076;29;20036;-79
2021/01/30 10:47:38;;;;;;;41.50;22.58;;;4.50;67.40;;;;;;4927258;29;20039;-79
2021/01/30 10:50:15;;;;;;;47.45;23.67;;;4.60;67.80;;;;;;4917779;29;20032;-79
2021/01/30 10:52:41;;;;;;;42.88;23.70;;;4.70;67.90;;;;;;4917651;29;20064;-81
2021/01/30 10:55:32;;;;;;;40.40;21.60;;;4.80;68.00;;;;;;4916280;29;20048;-78
2021/01/30 10:58:11;;;;;;;40.78;22.65;;;4.90;67.80;;;;;;4917210;29;20060;-78
2021/01/30 11:00:37;;;;;;;41.38;21.83;;;4.90;67.00;;;;;;4917171;29;20028;-79
2021/01/30 11:03:22;;;;;;;41.20;22.40;;;4.80;66.50;;;;;;4915759;29;20036;-79
2021/01/30 11:05:48;;;;;;;37.05;21.27;;;4.60;66.30;;;;;;4917257;29;20056;-80
2021/01/30 11:08:28;;;;;;;40.33;20.67;;;4.50;66.80;;;;;;4917176;29;20375;-79
2021/01/30 11:11:23;;;;;;;44.58;21.70;;;4.40;66.90;;;;;;4917459;29;20036;-79
2021/01/30 11:13:49;;;;;;;43.67;22.80;;;4.40;66.90;;;;;;4915924;29;20091;-79
2021/01/30 11:16:28;;;;;;;44.25;23.48;;;4.30;67.20;;;;;;4920128;29;20036;-80
2021/01/30 11:18:54;;;;;;;42.08;21.60;;;4.20;66.90;;;;;;4922019;29;20363;-78
2021/01/30 11:21:36;;;;;;;45.90;23.33;;;4.10;66.90;;;;;;4923308;29;20401;-78
2021/01/30 11:24:19;;;;;;;45.78;23.40;;;4.00;67.60;;;;;;4927170;29;20070;-78
2021/01/30 11:26:45;;;;;;;45.33;24.38;;;4.00;67.80;;;;;;4933718;29;20032;-78
2021/01/30 11:29:32;;;;;;;46.50;23.13;;;3.90;68.00;;;;;;4937590;29;20161;-79
2021/01/30 11:32:00;;;;;;;48.60;24.13;;;3.90;68.40;;;;;;4935823;29;20035;-77
2021/01/30 11:34:27;;;;;;;45.90;22.88;;;3.80;68.40;;;;;;4925093;29;20110;-78
2021/01/30 11:36:53;;;;;;;46.20;25.15;;;3.80;68.60;;;;;;4920689;29;20043;-78
2021/01/30 11:39:34;;;;;;;51.58;25.05;;;3.80;68.80;;;;;;4919439;29;20035;-79
2021/01/30 11:42:00;;;;;;;43.97;22.77;;;3.80;69.30;;;;;;4920641;29;20034;-78
2021/01/30 11:44:26;;;;;;;49.58;24.60;;;3.90;69.20;;;;;;4920449;29;20036;-78
2021/01/30 11:46:52;;;;;;;49.60;26.30;;;3.80;69.20;;;;;;4918795;29;20494;-78
2021/01/30 11:49:19;;;;;;;48.10;24.17;;;3.80;69.40;;;;;;4919035;29;20063;-78
2021/01/30 11:51:44;;;;;;;50.15;25.75;;;3.80;69.50;;;;;;4919945;29;20031;-79
2021/01/30 11:54:11;;;;;;;49.60;24.58;;;3.80;69.90;;;;;;4919086;29;20036;-78
2021/01/30 11:56:38;;;;;;;52.25;26.60;;;3.80;69.90;;;;;;4920386;29;20060;-78
2021/01/30 11:59:04;;;;;;;47.58;23.83;;;3.80;70.20;;;;;;4920227;29;20035;-79
2021/01/30 12:01:31;;;;;;;49.92;25.58;;;3.80;70.10;;;;;;4919951;29;20103;-79
2021/01/30 12:03:58;;;;;;;49.30;26.00;;;3.80;70.50;;;;;;4920230;29;20024;-78
2021/01/30 12:06:24;;;;;;;48.47;26.00;;;3.80;70.70;;;;;;4919760;29;20105;-78
2021/01/30 12:08:50;;;;;;;52.08;26.77;;;3.80;70.80;;;;;;4919931;29;20084;-78
2021/01/30 12:11:15;;;;;;;51.92;27.73;;;3.80;70.60;;;;;;4919466;29;20515;-78
2021/01/30 12:13:41;;;;;;;54.08;28.20;;;3.80;70.80;;;;;;4919446;29;20086;-78
2021/01/30 12:16:07;;;;;;;53.40;26.38;;;3.80;71.00;;;;;;4918856;29;20386;-78
2021/01/30 12:18:34;;;;;;;51.70;28.30;;;3.80;71.30;;;;;;4919659;29;20032;-79
2021/01/30 12:21:01;;;;;;;53.47;27.90;;;3.80;71.30;;;;;;4919686;29;20088;-79
2021/01/30 12:23:26;;;;;;;54.92;28.88;;;3.80;71.30;;;;;;4919603;29;20099;-79
2021/01/30 12:25:52;;;;;;;53.70;27.60;;;3.80;71.50;;;;;;4919712;29;20096;-79
2021/01/30 12:28:26;;;;;;;57.33;28.10;;;3.80;71.50;;;;;;4918490;29;20028;-79
2021/01/30 12:30:53;;;;;;;62.25;29.50;;;3.70;71.70;;;;;;4919442;29;20035;-78
2021/01/30 12:33:19;;;;;;;57.45;31.15;;;3.70;72.00;;;;;;4918305;29;20035;-78
2021/01/30 12:35:45;;;;;;;59.60;30.08;;;3.80;72.30;;;;;;4919334;29;20040;-76
2021/01/30 12:38:11;;;;;;;59.78;30.48;;;3.80;72.30;;;;;;4919154;29;20040;-81
2021/01/30 12:40:41;;;;;;;73.07;35.85;;;3.80;72.30;;;;;;4919543;29;20032;-78
2021/01/30 12:43:08;;;;;;;66.57;34.85;;;3.80;72.30;;;;;;4919413;29;20032;-77
2021/01/30 12:45:34;;;;;;;71.05;36.45;;;3.80;72.50;;;;;;4919238;29;20032;-78
2021/01/30 12:48:00;;;;;;;69.05;38.53;;;3.80;72.50;;;;;;4919304;29;20024;-79
2021/01/30 12:50:27;;;;;;;72.35;38.22;;;3.80;72.60;;;;;;4918214;29;20072;-78
2021/01/30 12:52:54;;;;;;;75.63;40.80;;;3.70;72.80;;;;;;4917669;29;20028;-77
2021/01/30 12:55:20;;;;;;;74.43;40.85;;;3.80;73.30;;;;;;4917820;29;20083;-78
2021/01/30 12:57:45;;;;;;;75.10;39.47;;;3.80;73.50;;;;;;4919392;29;20039;-78
2021/01/30 13:00:15;;;;;;;78.65;41.05;;;3.80;73.70;;;;;;4918986;29;20032;-78
2021/01/30 13:02:41;;;;;;;79.47;40.65;;;3.80;73.60;;;;;;4918946;29;20125;-79
2021/01/30 13:05:09;;;;;;;69.65;37.55;;;3.80;73.70;;;;;;4922347;29;20032;-78
2021/01/30 13:07:35;;;;;;;77.30;41.88;;;3.80;73.70;;;;;;4911341;29;20023;-78